Time;durP1;ratioP1;P1;durP2;ratioP2;P2;SDS_P1;SDS_P2;PMS_P1;PMS_P2;Temp;Humidity;BMP_temperature;BMP_pressure;BME280_temperature;BME280_humidity;BME280_pressure;Samples;Min_cycle;Max_cycle;Signal;HPM_P1;HPM_P2
2023/08/01 00:00:46;;;;;;;3.75;1.27;;;;;22.30;99716.00;;;;5108035;28;20213;-82
2023/08/01 00:03:14;;;;;;;2.38;1.38;;;;;22.30;99714.00;;;;5109170;28;20205;-82
2023/08/01 00:05:44;;;;;;;2.70;1.15;;;;;22.30;99722.00;;;;5107824;28;20255;-81
2023/08/01 00:08:13;;;;;;;3.28;1.73;;;;;22.30;99717.00;;;;5108600;28;20624;-82
2023/08/01 00:10:40;;;;;;;2.45;1.30;;;;;22.30;99707.00;;;;5108163;28;20208;-82
2023/08/01 00:13:08;;;;;;;2.15;1.33;;;;;22.30;99718.00;;;;5107343;28;20232;-82
2023/08/01 00:15:36;;;;;;;4.00;1.60;;;;;22.30;99717.00;;;;5108303;28;20225;-82
2023/08/01 00:18:04;;;;;;;4.43;1.88;;;;;22.30;99708.00;;;;5108239;28;20194;-81
2023/08/01 00:20:31;;;;;;;3.28;1.80;;;;;22.30;99704.00;;;;5107611;28;20197;-82
2023/08/01 00:22:58;;;;;;;3.10;1.17;;;;;22.30;99701.00;;;;5108428;28;20193;-82
2023/08/01 00:25:27;;;;;;;1.40;1.10;;;;;22.30;99695.00;;;;5111870;28;20202;-82
2023/08/01 00:45:46;;;;;;;2.85;2.03;;;20.70;68.90;21.90;99663.00;;;;5078113;27;1220639;-78
2023/08/01 00:48:13;;;;;;;3.78;2.20;;;20.20;71.80;21.90;99661.00;;;;5104624;28;20205;-78
2023/08/01 00:50:41;;;;;;;2.72;1.48;;;20.30;71.00;22.00;99652.00;;;;5101995;28;20206;-78
2023/08/01 00:53:08;;;;;;;4.10;1.40;;;20.40;70.40;22.00;99644.00;;;;5085794;28;20233;-78
2023/08/01 00:55:36;;;;;;;3.22;1.92;;;20.50;70.00;22.00;99647.00;;;;5084962;28;20206;-78
2023/08/01 00:58:03;;;;;;;5.90;2.00;;;20.50;69.60;22.00;99645.00;;;;5095117;28;20212;-78
2023/08/01 01:00:30;;;;;;;2.53;1.83;;;20.50;69.40;22.00;99642.00;;;;5105850;28;20190;-78
2023/08/01 01:02:59;;;;;;;2.55;2.15;;;20.50;69.40;22.00;99633.00;;;;5105672;28;20236;-78
2023/08/01 01:05:28;;;;;;;3.67;1.70;;;20.50;69.40;22.00;99626.00;;;;5104378;28;20198;-78
2023/08/01 01:07:56;;;;;;;1.67;1.48;;;20.50;69.30;22.00;99639.00;;;;5099828;28;20584;-78
2023/08/01 01:10:23;;;;;;;2.97;1.77;;;20.40;69.20;22.00;99642.00;;;;5084523;28;20202;-78
2023/08/01 01:12:50;;;;;;;2.22;1.70;;;20.40;69.20;22.00;99631.00;;;;5084924;28;20198;-78
2023/08/01 01:15:17;;;;;;;2.97;1.65;;;20.40;69.20;22.00;99631.00;;;;5099420;28;20247;-78
2023/08/01 01:17:44;;;;;;;2.50;1.63;;;20.40;69.20;22.00;99633.00;;;;5105143;28;20198;-78
2023/08/01 01:20:13;;;;;;;6.47;1.90;;;20.30;69.10;21.90;99632.00;;;;5105236;28;20284;-78
2023/08/01 01:22:43;;;;;;;2.25;1.70;;;20.30;69.10;21.90;99633.00;;;;5104691;28;20194;-78
2023/08/01 01:25:12;;;;;;;4.47;2.35;;;20.30;69.00;21.90;99641.00;;;;5097535;28;20708;-77
2023/08/01 01:27:39;;;;;;;3.35;2.08;;;20.30;69.00;21.90;99643.00;;;;5084903;28;20205;-78
2023/08/01 01:30:08;;;;;;;2.78;2.08;;;20.30;69.00;21.80;99642.00;;;;5083980;28;20214;-77
2023/08/01 01:32:35;;;;;;;3.03;2.38;;;20.20;69.00;21.80;99647.00;;;;5084725;28;20952;-78
2023/08/01 01:35:05;;;;;;;3.75;2.20;;;20.30;69.00;21.80;99642.00;;;;5078524;28;20227;-77
2023/08/01 01:37:31;;;;;;;2.42;2.15;;;20.20;69.00;21.80;99642.00;;;;5063944;28;20741;-77
2023/08/01 01:40:00;;;;;;;2.88;2.35;;;20.20;69.10;21.80;99634.00;;;;5075490;28;20309;-78
2023/08/01 01:42:27;;;;;;;3.40;2.33;;;20.20;69.10;21.80;99639.00;;;;5084001;28;20199;-78
2023/08/01 01:44:54;;;;;;;5.22;2.20;;;20.10;69.00;21.80;99642.00;;;;5079577;28;20713;-78
2023/08/01 01:47:21;;;;;;;3.15;2.38;;;20.10;69.00;21.70;99647.00;;;;5071435;28;20211;-78
2023/08/01 01:49:48;;;;;;;2.40;2.00;;;20.10;69.10;21.70;99645.00;;;;5070581;28;20202;-78
2023/08/01 01:52:15;;;;;;;2.97;2.33;;;20.10;69.10;21.70;99639.00;;;;5070641;28;20210;-78
2023/08/01 01:54:42;;;;;;;3.17;2.22;;;20.10;69.20;21.70;99637.00;;;;5070734;28;20202;-78
2023/08/01 01:57:10;;;;;;;3.95;2.38;;;20.10;69.90;21.70;99633.00;;;;5070124;28;20237;-78
2023/08/01 01:59:37;;;;;;;3.72;2.17;;;20.00;69.20;21.70;99636.00;;;;5069677;28;20218;-77
2023/08/01 02:02:05;;;;;;;2.45;1.77;;;20.00;69.20;21.70;99627.00;;;;5070760;28;20195;-78
2023/08/01 02:04:32;;;;;;;7.90;2.90;;;20.00;69.30;21.60;99630.00;;;;5070512;28;20219;-78
2023/08/01 02:06:58;;;;;;;3.97;2.47;;;20.00;69.30;21.60;99629.00;;;;5070217;28;20210;-78
2023/08/01 02:09:25;;;;;;;4.55;2.67;;;20.00;69.40;21.60;99629.00;;;;5070581;28;20214;-77
2023/08/01 02:11:52;;;;;;;3.67;2.50;;;20.00;69.40;21.60;99621.00;;;;5070492;28;20210;-77
2023/08/01 02:14:21;;;;;;;4.03;2.95;;;19.90;69.30;21.60;99627.00;;;;5070283;28;20613;-78
2023/08/01 02:16:48;;;;;;;4.28;2.08;;;19.90;69.40;21.60;99625.00;;;;5056900;28;20254;-78
2023/08/01 02:19:14;;;;;;;4.95;2.67;;;19.90;69.40;21.60;99621.00;;;;5050267;28;20572;-78
2023/08/01 02:21:41;;;;;;;3.78;2.47;;;19.90;69.50;21.60;99613.00;;;;5050422;28;20203;-77
2023/08/01 02:24:08;;;;;;;2.70;1.88;;;19.90;69.50;21.60;99615.00;;;;5050507;28;20223;-77
2023/08/01 02:26:35;;;;;;;6.68;2.60;;;20.00;69.70;21.60;99623.00;;;;5050628;28;20207;-78
2023/08/01 02:29:02;;;;;;;4.32;2.40;;;20.00;69.70;21.60;99620.00;;;;5049355;28;20208;-77
2023/08/01 02:31:30;;;;;;;3.38;2.40;;;19.90;69.70;21.60;99619.00;;;;5050063;28;20207;-78
2023/08/01 02:33:57;;;;;;;8.80;2.85;;;19.90;69.80;21.60;99610.00;;;;5055636;28;20210;-77
2023/08/01 02:36:24;;;;;;;4.35;2.17;;;19.90;69.90;21.60;99610.00;;;;5069943;28;20218;-77
2023/08/01 02:38:51;;;;;;;3.47;1.80;;;20.00;70.00;21.60;99615.00;;;;5069620;28;20669;-77
2023/08/01 02:41:18;;;;;;;5.05;2.20;;;19.90;70.00;21.60;99614.00;;;;5069763;28;20213;-77
2023/08/01 02:43:45;;;;;;;5.45;2.33;;;20.00;70.10;21.60;99616.00;;;;5069330;28;20570;-78
2023/08/01 02:46:12;;;;;;;3.83;1.95;;;20.00;70.10;21.60;99613.00;;;;5070146;28;20226;-78
2023/08/01 02:48:40;;;;;;;5.38;2.20;;;20.00;70.20;21.60;99612.00;;;;5069813;28;20215;-78
2023/08/01 02:51:09;;;;;;;5.47;2.47;;;20.00;70.20;21.60;99614.00;;;;5068796;28;20215;-77
2023/08/01 02:53:35;;;;;;;2.38;1.73;;;20.00;70.20;21.60;99622.00;;;;5069633;28;20198;-77
2023/08/01 02:56:06;;;;;;;2.85;2.17;;;20.00;70.20;21.60;99616.00;;;;5069137;28;20222;-77
2023/08/01 02:58:33;;;;;;;3.92;1.73;;;20.00;71.00;21.60;99612.00;;;;5068561;28;20207;-78
2023/08/01 03:01:01;;;;;;;7.35;2.10;;;20.00;70.30;21.60;99621.00;;;;5069728;28;20206;-78
2023/08/01 03:03:28;;;;;;;2.35;1.35;;;20.00;70.30;21.60;99612.00;;;;5069960;28;20590;-78
2023/08/01 03:05:56;;;;;;;4.35;1.67;;;20.00;70.40;21.60;99617.00;;;;5068592;28;20311;-77
2023/08/01 03:08:23;;;;;;;3.92;1.83;;;20.10;70.50;21.60;99610.00;;;;5068541;28;20214;-78
2023/08/01 03:10:50;;;;;;;3.25;1.83;;;20.10;70.40;21.70;99614.00;;;;5069065;28;20222;-78
2023/08/01 03:13:17;;;;;;;5.05;2.20;;;20.10;70.50;21.70;99617.00;;;;5069743;28;20202;-77
2023/08/01 03:15:44;;;;;;;3.55;1.75;;;20.10;70.40;21.70;99603.00;;;;5068245;28;20203;-77
2023/08/01 03:18:11;;;;;;;5.03;2.22;;;20.10;70.40;21.70;99610.00;;;;5068777;28;20677;-78
2023/08/01 03:20:38;;;;;;;3.50;2.40;;;20.10;70.40;21.70;99610.00;;;;5069057;28;20198;-77
2023/08/01 03:23:06;;;;;;;5.07;1.98;;;20.10;70.40;21.70;99616.00;;;;5069160;28;20769;-77
2023/08/01 03:25:33;;;;;;;3.05;1.50;;;20.10;70.50;21.70;99622.00;;;;5049819;28;20227;-78
2023/08/01 03:28:00;;;;;;;2.97;1.42;;;20.10;70.40;21.70;99622.00;;;;5048982;28;20199;-77
2023/08/01 03:30:27;;;;;;;4.47;1.98;;;20.10;70.40;21.70;99620.00;;;;5048705;28;20199;-78
2023/08/01 03:32:54;;;;;;;3.05;1.52;;;20.20;70.50;21.70;99616.00;;;;5055148;28;20195;-78
2023/08/01 03:35:21;;;;;;;3.35;1.80;;;20.20;70.50;21.70;99620.00;;;;5068771;28;20218;-77
2023/08/01 03:37:48;;;;;;;4.70;1.98;;;20.20;70.50;21.70;99620.00;;;;5068399;28;20669;-77
2023/08/01 03:40:16;;;;;;;4.88;1.75;;;20.20;70.50;21.70;99620.00;;;;5068190;28;20202;-77
2023/08/01 03:42:44;;;;;;;5.30;1.83;;;20.20;70.50;21.80;99624.00;;;;5049210;28;21183;-78
2023/08/01 03:45:11;;;;;;;5.82;2.33;;;20.20;70.50;21.80;99633.00;;;;5048363;28;20326;-77
2023/08/01 03:47:38;;;;;;;2.78;1.67;;;20.20;70.60;21.80;99643.00;;;;5049124;28;20207;-77
2023/08/01 03:50:06;;;;;;;5.50;2.60;;;20.20;70.60;21.80;99628.00;;;;5048427;28;20579;-77
2023/08/01 03:52:33;;;;;;;6.57;2.75;;;20.20;70.60;21.80;99634.00;;;;5048476;28;20211;-78
2023/08/01 03:55:00;;;;;;;4.10;2.35;;;20.20;70.60;21.80;99622.00;;;;5047555;28;20199;-78
2023/08/01 03:57:29;;;;;;;3.38;1.45;;;20.30;70.60;21.80;99627.00;;;;5049366;28;20206;-78
2023/08/01 03:59:55;;;;;;;3.20;1.85;;;20.30;70.70;21.80;99641.00;;;;5048543;28;20218;-78
2023/08/01 04:02:22;;;;;;;1.95;1.73;;;20.30;70.70;21.90;99634.00;;;;5048398;28;20191;-78
2023/08/01 04:04:49;;;;;;;4.43;2.35;;;20.30;70.70;21.90;99632.00;;;;5048108;28;20219;-77
2023/08/01 04:07:16;;;;;;;3.08;1.85;;;20.30;70.70;21.90;99634.00;;;;5059569;28;20205;-77
2023/08/01 04:09:43;;;;;;;6.65;2.17;;;20.30;70.60;21.90;99642.00;;;;5067551;28;20627;-78
2023/08/01 04:12:10;;;;;;;4.03;1.98;;;20.30;70.60;21.90;99634.00;;;;5068637;28;20760;-78
2023/08/01 04:14:38;;;;;;;4.20;3.47;;;20.40;70.60;21.90;99625.00;;;;5064464;28;20211;-77
2023/08/01 04:17:05;;;;;;;4.07;1.83;;;20.40;70.60;21.90;99631.00;;;;5048237;28;20688;-78
2023/08/01 04:19:32;;;;;;;5.05;1.95;;;20.30;70.40;21.90;99632.00;;;;5048044;28;20199;-78
2023/08/01 04:21:59;;;;;;;3.08;2.22;;;20.40;70.40;21.90;99633.00;;;;5047902;28;20211;-78
2023/08/01 04:24:27;;;;;;;5.72;1.83;;;20.40;70.40;21.90;99638.00;;;;5048102;28;20592;-78
2023/08/01 04:26:54;;;;;;;3.95;2.22;;;20.40;70.40;21.90;99632.00;;;;5048198;28;20205;-77
2023/08/01 04:29:21;;;;;;;5.32;2.10;;;20.40;70.30;21.90;99629.00;;;;5047966;28;20211;-77
2023/08/01 04:31:49;;;;;;;3.90;2.13;;;20.40;70.30;21.90;99623.00;;;;5048328;28;20195;-78
2023/08/01 04:34:16;;;;;;;4.45;1.95;;;20.30;70.30;21.90;99618.00;;;;5082870;28;20210;-78
2023/08/01 04:36:43;;;;;;;3.42;1.70;;;20.40;70.30;21.90;99624.00;;;;5087477;28;20225;-77
2023/08/01 04:39:10;;;;;;;4.40;2.22;;;20.40;70.30;21.90;99625.00;;;;5087907;28;20209;-77
2023/08/01 04:41:37;;;;;;;3.50;2.00;;;20.40;70.30;21.90;99626.00;;;;5088243;28;20191;-78
2023/08/01 04:44:04;;;;;;;5.43;2.30;;;20.40;70.40;21.90;99629.00;;;;5087819;28;20198;-78
2023/08/01 04:46:31;;;;;;;5.53;2.50;;;20.30;70.30;21.90;99620.00;;;;5088229;28;20230;-77
2023/08/01 04:48:59;;;;;;;4.07;2.20;;;20.30;70.30;21.90;99615.00;;;;5075212;28;20575;-77
2023/08/01 04:51:26;;;;;;;4.15;2.13;;;20.30;70.30;21.90;99618.00;;;;5047296;28;20570;-78
2023/08/01 04:53:53;;;;;;;5.38;2.30;;;20.30;70.30;21.90;99613.00;;;;5047949;28;20211;-78
2023/08/01 04:56:20;;;;;;;5.65;2.35;;;20.40;70.40;21.90;99619.00;;;;5048042;28;20291;-77
2023/08/01 04:58:47;;;;;;;6.55;2.03;;;20.30;70.40;21.90;99619.00;;;;5048134;28;20210;-78
2023/08/01 05:01:14;;;;;;;4.53;2.33;;;20.30;70.40;21.90;99615.00;;;;5047886;28;20198;-77
2023/08/01 05:03:41;;;;;;;8.57;2.38;;;20.30;70.40;21.90;99616.00;;;;5047785;28;20207;-77
2023/08/01 05:06:09;;;;;;;5.43;2.70;;;20.40;70.60;22.00;99618.00;;;;5048109;28;20227;-77
2023/08/01 05:08:36;;;;;;;3.75;2.50;;;20.40;70.70;22.00;99627.00;;;;5047977;28;20581;-78
2023/08/01 05:11:03;;;;;;;5.03;2.42;;;20.40;70.70;22.00;99614.00;;;;5048002;28;20207;-78
2023/08/01 05:13:30;;;;;;;7.15;2.55;;;20.40;70.70;22.00;99626.00;;;;5048053;28;20207;-77
2023/08/01 05:15:57;;;;;;;4.10;2.10;;;20.40;70.60;22.00;99637.00;;;;5063578;28;20575;-78
2023/08/01 05:18:24;;;;;;;6.43;2.65;;;20.40;70.60;22.00;99634.00;;;;5067524;28;20199;-78
2023/08/01 05:20:51;;;;;;;4.57;2.55;;;20.40;70.60;22.00;99631.00;;;;5069109;28;20202;-78
2023/08/01 05:23:19;;;;;;;6.05;2.60;;;20.40;70.60;22.00;99632.00;;;;5062553;28;20577;-78
2023/08/01 05:25:46;;;;;;;6.85;2.58;;;20.50;70.70;22.10;99627.00;;;;5051380;28;20223;-78
2023/08/01 05:28:14;;;;;;;5.38;2.65;;;20.50;70.60;22.10;99632.00;;;;5050825;28;20203;-78
2023/08/01 05:30:41;;;;;;;7.28;2.85;;;20.50;70.70;22.10;99631.00;;;;5051398;28;20254;-77
2023/08/01 05:33:08;;;;;;;4.45;2.38;;;20.50;70.60;22.10;99634.00;;;;5067953;28;20210;-78
2023/08/01 05:35:35;;;;;;;5.97;2.72;;;20.50;70.70;22.10;99639.00;;;;5071060;28;20253;-78
2023/08/01 05:38:02;;;;;;;3.88;2.05;;;20.50;70.70;22.10;99643.00;;;;5070493;28;20207;-78
2023/08/01 05:40:31;;;;;;;6.85;2.40;;;20.60;70.70;22.10;99647.00;;;;5070473;28;20203;-78
2023/08/01 05:42:58;;;;;;;4.22;2.10;;;20.60;70.60;22.10;99646.00;;;;5070696;28;20574;-79
2023/08/01 05:45:25;;;;;;;5.75;2.65;;;20.60;70.60;22.10;99643.00;;;;5070912;28;20239;-78
2023/08/01 05:47:51;;;;;;;5.53;1.77;;;20.60;70.60;22.20;99643.00;;;;5070890;28;20293;-78
2023/08/01 05:50:19;;;;;;;4.75;2.00;;;20.60;70.50;22.20;99649.00;;;;5071014;28;20210;-78
2023/08/01 05:52:45;;;;;;;5.80;2.00;;;20.60;70.50;22.20;99645.00;;;;5070084;28;20214;-78
2023/08/01 05:55:13;;;;;;;4.22;1.85;;;20.60;71.20;22.20;99651.00;;;;5071086;28;20209;-78
2023/08/01 05:57:41;;;;;;;6.22;2.30;;;20.60;70.50;22.20;99650.00;;;;5070117;28;20252;-78
2023/08/01 06:00:10;;;;;;;5.43;2.05;;;20.70;70.50;22.20;99647.00;;;;5070409;28;20673;-78
2023/08/01 06:02:37;;;;;;;5.25;2.20;;;20.70;70.50;22.20;99651.00;;;;5070652;28;20202;-78
2023/08/01 06:05:05;;;;;;;4.97;2.35;;;20.70;70.50;22.30;99660.00;;;;5070032;28;20313;-78
2023/08/01 06:07:31;;;;;;;6.22;2.60;;;20.70;70.50;22.30;99660.00;;;;5070485;28;20772;-78
2023/08/01 06:09:58;;;;;;;3.17;1.60;;;20.70;70.40;22.30;99657.00;;;;5070553;28;20548;-78
2023/08/01 06:12:25;;;;;;;4.45;1.77;;;20.70;70.30;22.30;99656.00;;;;5070753;28;20199;-77
2023/08/01 06:14:54;;;;;;;4.15;1.77;;;20.70;70.30;22.30;99653.00;;;;5069311;28;20195;-78
2023/08/01 06:17:20;;;;;;;5.72;2.13;;;20.80;70.20;22.30;99664.00;;;;5070452;28;20218;-78
2023/08/01 06:19:49;;;;;;;5.65;2.03;;;20.80;70.20;22.30;99663.00;;;;5070410;28;20191;-78
2023/08/01 06:22:16;;;;;;;4.93;2.38;;;20.80;70.20;22.30;99667.00;;;;5070282;28;20218;-78
2023/08/01 06:24:43;;;;;;;2.85;2.05;;;20.80;70.10;22.30;99666.00;;;;5069843;28;20194;-77
2023/08/01 06:27:10;;;;;;;4.55;2.03;;;20.80;70.20;22.30;99663.00;;;;5069798;28;20256;-77
2023/08/01 06:29:38;;;;;;;4.95;2.13;;;20.80;70.30;22.40;99674.00;;;;5070102;28;20187;-78
2023/08/01 06:32:07;;;;;;;3.63;1.67;;;20.80;70.30;22.40;99678.00;;;;5054564;28;21264;-78
2023/08/01 06:34:34;;;;;;;6.75;2.03;;;20.80;70.30;22.40;99678.00;;;;5062168;28;20195;-77
2023/08/01 06:37:01;;;;;;;3.90;1.85;;;20.90;70.50;22.50;99678.00;;;;5069266;28;20202;-77
2023/08/01 06:39:28;;;;;;;3.55;1.80;;;20.90;70.50;22.50;99682.00;;;;5070194;28;20203;-77
2023/08/01 06:41:55;;;;;;;4.32;1.50;;;21.00;70.40;22.50;99689.00;;;;5069583;28;20685;-77
2023/08/01 06:44:22;;;;;;;2.85;1.30;;;21.00;70.40;22.60;99694.00;;;;5069310;28;20303;-77
2023/08/01 06:46:49;;;;;;;6.45;2.10;;;21.00;70.40;22.60;99686.00;;;;5069207;28;20616;-77
2023/08/01 06:49:17;;;;;;;4.05;1.75;;;21.10;70.40;22.60;99690.00;;;;5053269;28;20211;-77
2023/08/01 06:51:44;;;;;;;6.40;2.00;;;21.10;70.20;22.70;99701.00;;;;5049818;28;20207;-77
2023/08/01 06:54:11;;;;;;;4.05;2.05;;;21.10;70.00;22.70;99688.00;;;;5049931;28;20207;-77
2023/08/01 06:56:37;;;;;;;5.35;1.70;;;21.20;70.00;22.70;99686.00;;;;5049290;28;20620;-77
2023/08/01 06:59:04;;;;;;;5.45;2.10;;;21.20;69.90;22.70;99691.00;;;;5049055;28;20203;-77
2023/08/01 07:01:32;;;;;;;5.80;2.20;;;21.20;69.90;22.80;99695.00;;;;5049916;28;20558;-77
2023/08/01 07:03:59;;;;;;;4.43;2.15;;;21.20;69.80;22.80;99688.00;;;;5049675;28;20294;-77
2023/08/01 07:06:28;;;;;;;2.58;1.40;;;21.30;69.90;22.90;99689.00;;;;5060410;28;20662;-77
2023/08/01 07:08:54;;;;;;;3.45;1.85;;;21.30;69.90;22.90;99693.00;;;;5068417;28;20199;-77
2023/08/01 07:11:21;;;;;;;4.57;1.88;;;21.40;70.00;23.00;99694.00;;;;5069258;28;20195;-77
2023/08/01 07:13:48;;;;;;;5.45;2.20;;;21.40;70.00;23.00;99691.00;;;;5068490;28;20696;-77
2023/08/01 07:16:15;;;;;;;4.30;1.83;;;21.50;70.00;23.10;99686.00;;;;5068813;28;20195;-77
2023/08/01 07:18:42;;;;;;;3.72;1.80;;;21.50;69.80;23.10;99687.00;;;;5068592;28;20210;-77
2023/08/01 07:21:09;;;;;;;3.47;1.80;;;21.60;69.50;23.10;99682.00;;;;5069010;28;20210;-78
2023/08/01 07:23:37;;;;;;;5.30;1.77;;;21.60;69.40;23.20;99697.00;;;;5049369;28;20223;-77
2023/08/01 07:26:04;;;;;;;5.13;1.95;;;21.60;69.30;23.20;99707.00;;;;5048872;28;20227;-77
2023/08/01 07:28:31;;;;;;;3.78;2.00;;;21.70;69.20;23.20;99697.00;;;;5048788;28;20199;-78
2023/08/01 07:31:02;;;;;;;4.55;1.85;;;21.70;68.80;23.10;99708.00;;;;5048619;28;20566;-79
2023/08/01 07:33:29;;;;;;;3.45;1.90;;;21.70;68.50;23.20;99708.00;;;;5048967;28;20211;-79
2023/08/01 07:35:57;;;;;;;7.10;1.92;;;21.70;68.40;23.10;99711.00;;;;5057885;28;20225;-79
2023/08/01 07:38:24;;;;;;;2.45;1.63;;;21.70;68.20;23.10;99701.00;;;;5068236;28;20574;-79
2023/08/01 07:40:52;;;;;;;5.57;1.38;;;21.70;68.10;23.10;99705.00;;;;5068363;28;20199;-77
2023/08/01 07:43:19;;;;;;;7.22;1.75;;;21.60;68.00;23.00;99711.00;;;;5068149;28;20556;-79
2023/08/01 07:45:46;;;;;;;3.65;1.73;;;21.60;68.00;23.00;99710.00;;;;5067811;28;20747;-79
2023/08/01 07:48:13;;;;;;;3.55;1.85;;;21.60;68.10;23.00;99707.00;;;;5068533;28;20191;-79
2023/08/01 07:50:40;;;;;;;3.50;1.88;;;21.50;68.00;23.00;99719.00;;;;5068306;28;20206;-79
2023/08/01 07:53:07;;;;;;;5.22;2.00;;;21.50;68.40;23.00;99720.00;;;;5068412;28;20613;-79
2023/08/01 07:55:35;;;;;;;4.25;1.90;;;21.50;68.70;23.10;99720.00;;;;5067863;28;20215;-78
2023/08/01 07:58:03;;;;;;;1.65;1.25;;;21.50;69.00;23.10;99711.00;;;;5067419;28;20583;-78
2023/08/01 08:00:30;;;;;;;4.93;1.65;;;21.50;69.20;23.10;99703.00;;;;5068726;28;20203;-78
2023/08/01 08:02:57;;;;;;;7.45;1.98;;;21.60;69.30;23.20;99708.00;;;;5068045;28;20206;-78
2023/08/01 08:05:24;;;;;;;2.42;1.58;;;21.60;69.50;23.30;99716.00;;;;5068043;28;20210;-78
2023/08/01 08:07:51;;;;;;;3.58;1.63;;;21.70;69.80;23.30;99720.00;;;;5068104;28;20233;-78
2023/08/01 08:10:18;;;;;;;6.07;2.00;;;21.70;69.80;23.40;99720.00;;;;5068526;28;20579;-77
2023/08/01 08:12:45;;;;;;;3.78;1.70;;;21.80;69.70;23.40;99727.00;;;;5066863;28;20206;-77
2023/08/01 08:15:15;;;;;;;2.75;1.80;;;21.80;69.30;23.40;99729.00;;;;5067716;28;20688;-77
2023/08/01 08:17:42;;;;;;;8.98;1.85;;;21.90;68.80;23.40;99733.00;;;;5068055;28;20745;-77
2023/08/01 08:20:10;;;;;;;6.10;1.65;;;21.90;68.50;23.40;99729.00;;;;5068174;28;20206;-77
2023/08/01 08:22:37;;;;;;;2.78;1.52;;;21.90;68.40;23.40;99731.00;;;;5068262;28;20206;-77
2023/08/01 08:25:04;;;;;;;3.42;1.60;;;21.90;68.50;23.40;99730.00;;;;5067801;28;20596;-77
2023/08/01 08:27:31;;;;;;;3.17;1.67;;;22.00;68.70;23.50;99727.00;;;;5067688;28;20708;-77
2023/08/01 08:29:58;;;;;;;5.40;1.50;;;22.00;68.60;23.60;99733.00;;;;5061532;28;20325;-77
2023/08/01 08:32:26;;;;;;;4.07;1.60;;;22.00;68.50;23.60;99728.00;;;;5047968;28;20620;-77
2023/08/01 08:34:53;;;;;;;4.72;1.73;;;22.10;68.50;23.70;99731.00;;;;5047600;28;20200;-78
2023/08/01 08:37:20;;;;;;;2.47;1.52;;;22.10;68.40;23.80;99734.00;;;;5056430;28;20246;-77
2023/08/01 08:39:48;;;;;;;3.17;1.55;;;22.20;68.40;23.80;99730.00;;;;5067146;28;20199;-77
2023/08/01 08:42:18;;;;;;;4.32;1.35;;;22.30;68.30;23.90;99744.00;;;;5068083;28;20554;-77
2023/08/01 08:44:50;;;;;;;1.65;1.27;;;22.40;68.20;23.90;99734.00;;;;5067658;28;20218;-77
2023/08/01 08:47:19;;;;;;;5.13;1.77;;;22.50;68.00;24.00;99735.00;;;;5067093;28;20522;-77
2023/08/01 08:49:48;;;;;;;5.30;1.60;;;22.50;67.60;24.10;99725.00;;;;5066996;28;20611;-77
2023/08/01 08:52:16;;;;;;;3.67;1.25;;;22.60;67.30;24.10;99737.00;;;;5068115;28;20199;-77
2023/08/01 08:54:44;;;;;;;4.00;2.13;;;22.60;66.50;24.10;99732.00;;;;5067136;28;20214;-77
2023/08/01 08:57:11;;;;;;;2.83;1.00;;;22.70;65.90;24.10;99732.00;;;;5072097;28;20552;-77
2023/08/01 08:59:39;;;;;;;2.28;1.10;;;22.70;66.10;24.10;99743.00;;;;5071321;28;20203;-76
2023/08/01 09:02:07;;;;;;;3.50;1.42;;;22.70;65.80;24.10;99736.00;;;;5072316;28;20202;-77
2023/08/01 09:04:34;;;;;;;4.22;1.45;;;22.70;65.60;24.10;99742.00;;;;5070998;28;20206;-77
2023/08/01 09:07:07;;;;;;;1.73;1.10;;;22.70;65.50;24.10;99746.00;;;;5071111;28;20567;-78
2023/08/01 09:09:36;;;;;;;4.72;1.40;;;22.70;65.20;24.10;99739.00;;;;5071040;28;20573;-78
2023/08/01 09:12:04;;;;;;;2.75;1.23;;;22.70;65.00;24.10;99750.00;;;;5070961;28;20670;-77
2023/08/01 09:14:32;;;;;;;2.97;1.08;;;22.80;65.00;24.10;99742.00;;;;5071475;28;20658;-77
2023/08/01 09:17:08;;;;;;;2.45;1.40;;;22.70;64.90;24.00;99748.00;;;;5071561;28;20321;-77
2023/08/01 09:19:35;;;;;;;2.80;1.35;;;22.70;64.40;24.10;99749.00;;;;5071396;28;20206;-77
2023/08/01 09:22:11;;;;;;;2.25;1.25;;;22.70;64.70;24.00;99753.00;;;;5055794;28;20742;-77
2023/08/01 09:24:37;;;;;;;9.52;1.73;;;22.70;64.60;24.10;99750.00;;;;5051471;28;20222;-77
2023/08/01 09:27:08;;;;;;;4.85;1.40;;;22.70;65.00;24.20;99753.00;;;;5051065;28;20230;-78
2023/08/01 09:29:35;;;;;;;3.58;1.58;;;22.80;65.00;24.20;99762.00;;;;5051325;28;20203;-77
2023/08/01 09:32:14;;;;;;;2.80;1.33;;;22.80;65.70;24.10;99763.00;;;;5050587;28;20222;-77
2023/08/01 09:34:42;;;;;;;3.63;1.45;;;22.80;64.30;24.20;99770.00;;;;5050266;28;20208;-77
2023/08/01 09:37:10;;;;;;;2.92;1.42;;;22.90;64.60;24.20;99775.00;;;;5057436;28;20235;-77
2023/08/01 09:39:37;;;;;;;3.75;1.48;;;22.90;64.50;24.30;99769.00;;;;5051640;28;20203;-77
2023/08/01 09:42:05;;;;;;;2.25;1.00;;;22.90;64.50;24.30;99766.00;;;;5050231;28;20203;-77
2023/08/01 09:44:32;;;;;;;2.53;1.10;;;22.90;64.50;24.30;99767.00;;;;5050781;28;20196;-77
2023/08/01 09:47:01;;;;;;;2.97;1.20;;;22.90;64.40;24.30;99786.00;;;;5050960;28;20223;-77
2023/08/01 09:49:29;;;;;;;1.85;1.25;;;23.00;64.00;24.30;99782.00;;;;5051160;28;20235;-77
2023/08/01 09:51:57;;;;;;;4.80;1.48;;;23.00;64.10;24.40;99785.00;;;;5050092;28;20226;-78
2023/08/01 09:54:25;;;;;;;2.28;1.35;;;23.00;64.00;24.40;99785.00;;;;5051553;28;20249;-77
2023/08/01 09:56:54;;;;;;;3.30;1.40;;;23.10;63.90;24.50;99775.00;;;;5050693;28;20199;-78
2023/08/01 09:59:23;;;;;;;4.78;1.33;;;23.20;63.70;24.60;99771.00;;;;5050153;28;20566;-77
2023/08/01 10:01:54;;;;;;;4.28;1.40;;;23.30;63.90;24.70;99778.00;;;;5050631;28;20199;-78
2023/08/01 10:04:27;;;;;;;3.97;1.13;;;23.40;64.10;24.80;99789.00;;;;5050872;28;20195;-77
2023/08/01 10:07:00;;;;;;;2.08;0.90;;;23.40;64.00;24.90;99775.00;;;;5049326;28;20314;-78
2023/08/01 10:09:31;;;;;;;2.35;1.30;;;23.60;63.60;25.00;99780.00;;;;5069018;28;20199;-77
2023/08/01 10:11:59;;;;;;;2.78;1.50;;;23.70;63.60;25.10;99788.00;;;;5063658;28;20202;-78
2023/08/01 10:14:26;;;;;;;6.63;1.00;;;23.70;62.80;25.10;99794.00;;;;5050732;28;20203;-77
2023/08/01 10:16:56;;;;;;;5.10;1.65;;;23.80;62.30;25.00;99790.00;;;;5070216;28;20198;-78
2023/08/01 10:19:23;;;;;;;1.60;1.05;;;23.80;61.60;25.00;99798.00;;;;5070415;28;20646;-77
2023/08/01 10:21:51;;;;;;;2.42;1.52;;;23.80;62.30;25.00;99800.00;;;;5069774;28;20218;-77
2023/08/01 10:24:20;;;;;;;3.80;1.30;;;23.70;61.40;24.90;99803.00;;;;5070220;28;20222;-77
2023/08/01 10:26:48;;;;;;;5.28;1.20;;;23.70;61.30;24.90;99801.00;;;;5069852;28;20215;-77
2023/08/01 10:29:15;;;;;;;3.17;1.33;;;23.70;61.50;25.00;99807.00;;;;5062141;28;20215;-78
2023/08/01 10:31:53;;;;;;;4.22;1.67;;;23.70;61.60;24.90;99806.00;;;;5049712;28;20203;-77
2023/08/01 10:34:21;;;;;;;1.98;1.05;;;23.60;60.80;25.00;99823.00;;;;5050011;28;20553;-77
2023/08/01 10:36:56;;;;;;;1.98;1.15;;;23.70;61.30;24.90;99809.00;;;;5052993;28;20713;-77
2023/08/01 10:39:25;;;;;;;2.38;1.08;;;23.60;60.50;25.00;99807.00;;;;5069553;28;20198;-77
2023/08/01 10:42:01;;;;;;;2.45;0.90;;;23.70;61.10;25.00;99809.00;;;;5069459;28;20553;-77
2023/08/01 10:44:30;;;;;;;3.53;1.30;;;23.70;60.60;25.10;99813.00;;;;5069994;28;20293;-77
2023/08/01 10:47:00;;;;;;;1.95;0.98;;;23.80;61.40;25.10;99818.00;;;;5068563;28;20705;-77
2023/08/01 10:49:40;;;;;;;1.35;1.10;;;23.80;61.10;25.10;99821.00;;;;5070074;28;20210;-78
2023/08/01 10:52:18;;;;;;;2.25;1.02;;;23.80;59.90;25.00;99830.00;;;;5069114;28;20577;-77
2023/08/01 10:54:46;;;;;;;1.98;1.15;;;23.90;59.70;25.10;99833.00;;;;5069452;28;20552;-77
2023/08/01 10:57:19;;;;;;;3.20;0.95;;;23.90;60.30;25.10;99828.00;;;;5070092;28;20206;-77
2023/08/01 10:59:47;;;;;;;1.63;0.90;;;23.90;59.90;25.20;99826.00;;;;5068908;28;20195;-77
2023/08/01 11:02:21;;;;;;;3.40;1.20;;;23.90;60.20;25.10;99829.00;;;;5069030;28;20290;-77
2023/08/01 11:04:57;;;;;;;3.90;1.40;;;23.90;59.80;25.20;99824.00;;;;5048761;28;20779;-77
2023/08/01 11:07:24;;;;;;;3.25;1.25;;;24.00;59.80;25.30;99829.00;;;;5051111;28;20231;-76
2023/08/01 11:10:08;;;;;;;2.00;1.00;;;24.00;60.50;25.30;99837.00;;;;5068746;28;20194;-77
2023/08/01 11:12:37;;;;;;;2.95;0.98;;;24.10;59.70;25.50;99837.00;;;;5069024;28;20197;-77
2023/08/01 11:15:08;;;;;;;6.32;1.48;;;24.10;60.40;25.60;99832.00;;;;5068643;28;20191;-77
2023/08/01 11:17:35;;;;;;;3.60;1.67;;;24.20;60.50;25.70;99835.00;;;;5068242;28;20194;-77